createdAt,value
2018-12-24T00:08:25.093Z,96.27
2018-12-24T00:12:32.498Z,96.29
2018-12-24T00:16:39.928Z,96.52
2018-12-24T00:20:47.472Z,96.88
2018-12-24T00:38:15.426Z,97.04
2018-12-24T00:42:22.462Z,96.34
2018-12-24T00:46:29.711Z,95.93
2018-12-24T00:50:37.038Z,95.93
2018-12-24T00:54:44.477Z,96.07
2018-12-24T00:58:51.816Z,96.26
2018-12-24T01:03:00.181Z,95.90
2018-12-24T01:11:27.844Z,94.58
2018-12-24T01:15:34.915Z,94.42
2018-12-24T01:19:44.478Z,93.78
2018-12-24T01:23:52.120Z,93.68
2018-12-24T01:28:00.491Z,93.62
2018-12-24T01:32:07.686Z,93.75
2018-12-24T01:36:15.393Z,93.21
2018-12-24T01:40:22.678Z,93.44
2018-12-24T01:44:30.025Z,93.62
2018-12-24T01:48:37.382Z,93.85
2018-12-24T01:52:45.440Z,94.29
2018-12-24T01:56:52.565Z,94.25
2018-12-24T02:01:00.172Z,94.01
2018-12-24T02:05:07.866Z,94.27
2018-12-24T02:13:41.074Z,92.54
2018-12-24T02:17:48.118Z,91.18
2018-12-24T02:21:55.211Z,91.23
2018-12-24T02:26:02.331Z,91.41
2018-12-24T02:30:09.608Z,91.23
2018-12-24T02:34:19.903Z,91.14
2018-12-24T02:38:27.241Z,90.76
2018-12-24T02:42:34.289Z,91.22
2018-12-24T02:46:41.401Z,91.75
2018-12-24T02:50:48.259Z,91.87
2018-12-24T02:54:55.331Z,91.90
2018-12-24T02:59:22.435Z,91.05
2018-12-24T03:03:50.302Z,91.25
2018-12-24T03:07:57.844Z,91.14
2018-12-24T03:12:30.092Z,90.57
2018-12-24T03:29:51.903Z,91.02
2018-12-24T03:33:59.143Z,91.63
2018-12-24T03:38:06.484Z,91.28
2018-12-24T03:42:13.869Z,91.43
2018-12-24T03:46:20.951Z,90.79
2018-12-24T03:50:30.297Z,90.36
2018-12-24T03:54:58.363Z,90.61
2018-12-24T04:03:25.105Z,89.95
2018-12-24T04:07:32.663Z,89.95
2018-12-24T04:11:40.102Z,89.67
2018-12-24T04:15:47.441Z,90.22
2018-12-24T04:19:54.509Z,89.12
2018-12-24T04:24:01.449Z,88.68
2018-12-24T04:32:40.623Z,88.55
2018-12-24T04:36:47.674Z,88.31
2018-12-24T04:45:12.955Z,89.60
2018-12-24T04:49:20.137Z,89.58
2018-12-24T04:53:27.453Z,89.50
2018-12-24T04:57:34.944Z,89.49
2018-12-24T05:06:01.320Z,89.35
2018-12-24T05:10:08.359Z,88.32
2018-12-24T05:14:35.917Z,88.21
2018-12-24T05:18:43.049Z,88.36
2018-12-24T05:27:29.420Z,87.63
2018-12-24T05:31:36.886Z,87.07
2018-12-24T05:35:44.648Z,87.38
2018-12-24T05:39:52.118Z,87.88
2018-12-24T05:43:59.429Z,87.60
2018-12-24T05:48:06.889Z,87.59
2018-12-24T05:52:14.220Z,87.74
2018-12-24T05:56:21.519Z,86.32
2018-12-24T06:00:28.895Z,86.49
2018-12-24T06:04:36.013Z,86.31
2018-12-24T06:08:43.258Z,86.44
2018-12-24T06:17:19.448Z,86.94
2018-12-24T06:21:26.637Z,86.75
2018-12-24T06:25:34.167Z,86.29
2018-12-24T06:38:31.076Z,85.94
2018-12-24T06:42:38.340Z,84.94
2018-12-24T06:46:47.334Z,85.87
2018-12-24T06:50:54.389Z,85.36
2018-12-24T06:55:01.914Z,84.86
2018-12-24T06:59:10.596Z,84.87
2018-12-24T07:03:17.767Z,84.96
2018-12-24T07:07:25.638Z,83.90
2018-12-24T07:11:32.667Z,84.77
2018-12-24T07:15:39.914Z,85.14
2018-12-24T07:19:47.116Z,84.32
2018-12-24T07:23:54.564Z,83.79
2018-12-24T07:28:01.819Z,82.89
2018-12-24T07:32:09.297Z,81.89
2018-12-24T07:36:16.472Z,80.57
2018-12-24T07:40:23.907Z,81.77
2018-12-24T07:44:49.566Z,81.49
2018-12-24T07:48:56.640Z,81.54
2018-12-24T07:57:35.346Z,80.18
2018-12-24T08:01:42.628Z,79.20
2018-12-24T08:05:49.971Z,79.07
2018-12-24T08:09:57.874Z,80.45
2018-12-24T08:14:44.496Z,80.67
2018-12-24T08:18:51.689Z,80.22
2018-12-24T08:23:00.525Z,79.15
2018-12-24T08:27:07.748Z,79.87
2018-12-24T08:31:16.959Z,80.18
2018-12-24T08:35:30.167Z,80.67
2018-12-24T08:44:09.104Z,79.22
2018-12-24T08:48:16.822Z,78.99
2018-12-24T08:52:24.077Z,79.18
2018-12-24T08:56:32.937Z,79.08
2018-12-24T09:00:59.133Z,78.78
2018-12-24T09:05:06.456Z,78.20
2018-12-24T09:09:13.739Z,77.71
2018-12-24T09:17:43.552Z,77.61
2018-12-24T09:21:51.264Z,74.82
2018-12-24T09:25:58.432Z,76.53
2018-12-24T09:30:24.779Z,75.31
2018-12-24T09:34:46.221Z,76.34
2018-12-24T09:39:00.152Z,77.53
2018-12-24T09:43:46.955Z,76.01
2018-12-24T09:47:54.834Z,75.61
2018-12-24T09:52:02.198Z,76.56
2018-12-24T09:56:12.284Z,74.92
2018-12-24T10:00:23.969Z,75.95
2018-12-24T10:04:54.650Z,75.40
2018-12-24T10:09:07.646Z,78.47
2018-12-24T10:13:15.476Z,78.52
2018-12-24T10:17:41.891Z,75.42
2018-12-24T10:21:49.089Z,75.62
2018-12-24T10:25:56.251Z,75.66
2018-12-24T10:30:03.596Z,76.26
2018-12-24T10:34:11.053Z,75.24
2018-12-24T10:38:18.248Z,75.36
2018-12-24T10:42:25.449Z,75.45
2018-12-24T10:46:32.665Z,73.62
2018-12-24T10:50:39.924Z,73.14
2018-12-24T10:54:47.243Z,73.00
2018-12-24T11:03:14.410Z,72.90
2018-12-24T11:07:21.533Z,72.85
2018-12-24T11:11:30.612Z,73.42
2018-12-24T11:15:37.800Z,72.44
2018-12-24T11:19:45.233Z,72.04
2018-12-24T11:23:52.461Z,70.92
2018-12-24T11:27:59.461Z,68.65
2018-12-24T11:32:06.629Z,68.59
2018-12-24T11:36:13.771Z,65.98
2018-12-24T11:40:21.121Z,66.91
2018-12-24T11:44:28.025Z,66.00
2018-12-24T11:48:35.068Z,64.85
2018-12-24T11:52:42.051Z,63.43
2018-12-24T11:56:49.251Z,64.26
2018-12-24T12:05:19.214Z,61.95
2018-12-24T12:14:05.622Z,61.38
2018-12-24T12:18:14.519Z,60.01
2018-12-24T12:22:21.839Z,58.63
2018-12-24T12:26:30.346Z,57.44
2018-12-24T12:30:57.516Z,58.19
2018-12-24T12:39:37.322Z,58.06
2018-12-24T12:43:44.622Z,61.57
2018-12-24T12:47:52.314Z,63.22
2018-12-24T12:51:59.728Z,63.47
2018-12-24T12:56:09.127Z,64.64
2018-12-24T13:00:16.403Z,65.37
2018-12-24T13:04:24.015Z,66.56
2018-12-24T13:08:31.605Z,65.47
2018-12-24T13:12:38.741Z,65.41
2018-12-24T13:21:14.918Z,65.34
2018-12-24T13:25:22.075Z,66.37
2018-12-24T13:29:29.807Z,64.30
2018-12-24T13:38:17.305Z,63.70
2018-12-24T13:42:24.431Z,63.43
2018-12-24T13:46:31.693Z,63.09
2018-12-24T13:50:39.019Z,63.66
2018-12-24T13:54:46.249Z,63.04
2018-12-24T13:58:53.597Z,63.16
2018-12-24T14:03:19.799Z,62.64
2018-12-24T14:07:45.703Z,62.12
2018-12-24T14:11:52.600Z,65.48
2018-12-24T14:16:44.880Z,66.12
2018-12-24T14:20:51.773Z,62.45
2018-12-24T14:25:18.772Z,61.27
2018-12-24T14:29:26.658Z,62.99
2018-12-24T14:33:53.956Z,63.20
2018-12-24T14:38:01.144Z,63.92
2018-12-24T14:46:47.670Z,63.81
2018-12-24T14:50:54.556Z,62.87
2018-12-24T14:55:01.580Z,62.86
2018-12-24T14:59:08.651Z,63.16
2018-12-24T15:03:15.701Z,63.53
2018-12-24T15:07:22.635Z,64.47
2018-12-24T15:11:29.654Z,64.14
2018-12-24T15:15:36.697Z,64.27
2018-12-24T15:19:43.701Z,64.98
2018-12-24T15:23:50.748Z,65.37
2018-12-24T15:27:57.815Z,64.83
2018-12-24T15:32:23.936Z,65.27
2018-12-24T15:36:32.220Z,65.70
2018-12-24T15:40:58.734Z,66.22
2018-12-24T15:45:06.041Z,66.39
2018-12-24T15:49:13.220Z,66.72
2018-12-24T15:53:21.307Z,67.15
2018-12-24T15:57:28.195Z,67.17
2018-12-24T16:01:35.126Z,66.64
2018-12-24T16:05:42.138Z,67.56
2018-12-24T16:09:49.352Z,67.17
2018-12-24T16:18:22.111Z,68.01
2018-12-24T16:22:29.305Z,67.97
2018-12-24T16:26:36.306Z,68.69
2018-12-24T16:35:23.909Z,69.44
2018-12-24T16:39:30.843Z,70.03
2018-12-24T16:43:38.074Z,70.29
2018-12-24T16:47:45.250Z,70.56
2018-12-24T16:51:52.549Z,70.96
2018-12-24T16:55:59.580Z,71.21
2018-12-24T17:00:07.236Z,71.71
2018-12-24T17:04:33.255Z,71.59
2018-12-24T17:08:40.572Z,71.90
2018-12-24T17:12:49.567Z,71.98
2018-12-24T17:16:56.590Z,72.20
2018-12-24T17:21:05.209Z,72.27
2018-12-24T17:25:12.200Z,72.35
2018-12-24T17:29:19.225Z,73.27
2018-12-24T17:33:26.216Z,73.07
2018-12-24T17:37:33.262Z,73.32
2018-12-24T17:41:40.169Z,73.74
2018-12-24T17:45:47.108Z,73.86
2018-12-24T17:49:54.601Z,73.54
2018-12-24T17:54:06.024Z,73.95
2018-12-24T18:02:31.700Z,74.73
2018-12-24T18:06:38.984Z,74.56
2018-12-24T18:10:45.988Z,75.39
2018-12-24T18:19:25.365Z,76.70
2018-12-24T18:23:32.385Z,76.51
2018-12-24T18:27:39.373Z,76.16
2018-12-24T18:40:45.032Z,75.68
2018-12-24T18:44:52.068Z,76.03
2018-12-24T18:53:31.203Z,76.56
2018-12-24T18:57:50.972Z,76.57
2018-12-24T19:01:50.961Z,76.37
2018-12-24T19:05:58.028Z,76.33
2018-12-24T19:14:44.379Z,77.23
2018-12-24T19:18:51.452Z,77.43
2018-12-24T19:22:59.297Z,77.67
2018-12-24T19:27:06.261Z,78.52
2018-12-24T19:31:13.380Z,78.23
2018-12-24T19:35:20.665Z,78.37
2018-12-24T19:39:27.886Z,78.13
2018-12-24T19:43:36.521Z,78.36
2018-12-24T19:47:49.831Z,79.98
2018-12-24T19:52:03.271Z,78.73
2018-12-24T19:56:11.386Z,78.66
2018-12-24T20:00:20.739Z,78.57
2018-12-24T20:04:27.811Z,78.37
2018-12-24T20:13:08.059Z,78.48
2018-12-24T20:17:17.332Z,78.33
2018-12-24T20:25:51.887Z,78.09
2018-12-24T20:34:51.579Z,77.96
2018-12-24T20:39:18.052Z,77.87
2018-12-24T20:43:25.211Z,78.83
2018-12-24T20:47:32.373Z,78.53
2018-12-24T20:51:41.869Z,78.64
2018-12-24T21:00:10.332Z,80.28
2018-12-24T21:04:17.507Z,79.18
2018-12-24T21:08:24.603Z,78.79
2018-12-24T21:12:32.248Z,78.70
2018-12-24T21:16:58.476Z,78.27
2018-12-24T21:21:05.862Z,80.62
2018-12-24T21:25:13.145Z,77.84
2018-12-24T21:29:20.472Z,77.65
2018-12-24T21:37:48.592Z,81.17
2018-12-24T21:41:55.863Z,78.51
2018-12-24T21:46:03.290Z,78.46
2018-12-24T21:59:02.376Z,78.65
2018-12-24T22:03:42.537Z,78.68
2018-12-24T22:07:57.760Z,79.21
2018-12-24T22:12:05.032Z,79.24
2018-12-24T22:16:12.095Z,79.25
2018-12-24T22:24:48.989Z,79.05
2018-12-24T22:29:15.110Z,78.67
2018-12-24T22:33:26.992Z,78.42
2018-12-24T22:37:55.109Z,78.04
2018-12-24T22:42:04.570Z,78.07
2018-12-24T22:46:12.266Z,78.34
2018-12-24T22:50:21.440Z,78.75
2018-12-24T22:58:48.284Z,78.15
2018-12-24T23:02:55.730Z,78.56
2018-12-24T23:07:03.843Z,78.05
2018-12-24T23:15:51.075Z,78.05
2018-12-24T23:19:58.179Z,77.44
2018-12-24T23:24:05.959Z,77.51
2018-12-24T23:28:13.065Z,77.19
2018-12-24T23:32:20.307Z,77.00
2018-12-24T23:36:27.610Z,77.31
2018-12-24T23:40:55.579Z,77.29
2018-12-24T23:45:03.751Z,77.64
2018-12-24T23:53:42.198Z,76.90
2018-12-24T23:57:49.761Z,76.79
